Flin Flon Airport
CYFO : rendu visible

Aérodrome :











RETROUVEZ-NOUS SUR...

 
LOGIN :

S'inscrire | Disclaimer

   EN    FR    IT 

 









Légende :    VFR   VFR Marginal   IFR   IFR Intensif   IFR Très Intensif
Visi : 
Plafond : 
>= 8 km
>= 3000ft
5 à 8 km
1000 à 3000 ft
1500m à 5 km
500 à 1000 ft
800 à 1500m
200 à 500 ft
< 800m
< 200 ft
Symboles :   Orages  Brouillard  Fortes neiges  Fortes précipitations  Vent > 20 kt






- Altitude de l'aérodrome : 997 ft
- Code IATA : YFO


CYFO - Flin Flon

DERNIER METAR :
  • 231800Z 31007G17KT 290V350 15SM OVC019 M01/M05 A2974 RMK SC8 SLP089

METARs EXPIRÉS :
  • 231700Z 31009KT 15SM OVC023 M01/M05 A2972 RMK SC8 SLP082
  • 231600Z 31009G17KT 15SM BKN024 BKN087 M02/M06 A2971 RMK SC7AC1 SLP081
  • 231500Z 30008KT 15SM FEW020 BKN086 M03/M06 A2969 RMK SC1AC5 SLP072

TAF N/A



MET'MAP, la Météo Aéronautique d'un coup d'oeil ! - Copyright ORBIFLY Décembre 2007 - Disclaimer

ORBIFLY MET'MAP TEAM :

Programmation & Développement : Alexandra Zaïnal
Sur une idée originale de : Baudouin d'Aumeries
Assistance à la programmation : Marc-Olivier Méhu
Soutien technique & logistique : Manuel Goepfert

Contact : metmap@orbifly.com




SOURCES & CREDITS :

   NOAA       Earth
Advisory